Airfield :
LOGIN :

Register | Disclaimer

   EN    FR    IT 

 










Legend :    VFR   Marginal VFR   IFR   Intensive IFR   Very Intensive IFR
Visi :
Ceiling :
>= 8 km
>= 3000ft
5 to 8 km
1000 to 3000 ft
1500m to 5 km
500 to 1000 ft
800 to 1500m
200 to 500 ft
< 800m
< 200 ft
Symbols :   Thunderstorms  Fog  Heavy snow  Heavy precipitations  Wind > 20 kt
SIGMETs :     Misc.  Thunderstorms  Icing  Turbulence  Mountain Waves  Volcanic Ashes






- Airport Elevation : 38 ft
- IATA code : TRE


EGPU - Tiree

CURRENT METAR :
  • 150850Z 35012KT 9999 BKN003 14/14 Q1004

EXPIRED METARs :
  • 150820Z 36012KT 9999 BKN002 14/14 Q1004
  • 150750Z AUTO 36011KT 9999 OVC001/// 14/14 Q1004
  • 150720Z AUTO 01012KT 340V040 6000 OVC002/// 14/14 Q1004
  • 150650Z AUTO 01010KT 340V070 9000 OVC002/// 14/14 Q1004
  • 150620Z AUTO 36010KT 9000 OVC002/// 14/14 Q1004

TAF TAF EGPU
Valid from the 15 at 09:00 until the 15 at 18:00 UTC


150803Z 1509/1518 35012KT 9999 FEW002
PROB40
TEMPO 1509/1513 2000 BR BKN002
PROB30
TEMPO 1514/1518 BKN006



MET'MAP, your aeronautical weather chart ! - Copyright ORBIFLY December 2007 - Disclaimer

ORBIFLY MET'MAP TEAM :

Programming & Development : Alexandra Zaïnal
Original concept : Baudouin d'Aumeries
Technical & hardware support : Manuel Goepfert
Assistance : Marc-Olivier Méhu




SOURCES & CREDITS :

   NOAA